createdAt,value
2022-08-26T00:03:46.370Z,99077.84
2022-08-26T00:08:50.405Z,99070.00
2022-08-26T00:13:53.050Z,99087.63
2022-08-26T00:18:56.546Z,99090.44
2022-08-26T00:24:00.537Z,99088.03
2022-08-26T00:29:03.214Z,99080.38
2022-08-26T00:34:09.488Z,99075.25
2022-08-26T00:39:15.141Z,99087.44
2022-08-26T00:44:18.154Z,99088.56
2022-08-26T00:49:23.901Z,99099.72
2022-08-26T00:54:31.694Z,99093.47
2022-08-26T00:59:34.460Z,99107.06
2022-08-26T01:04:38.155Z,99098.94
2022-08-26T01:09:42.199Z,99100.84
2022-08-26T01:14:46.460Z,99110.91
2022-08-26T01:19:52.367Z,99102.75
2022-08-26T01:24:56.952Z,99110.63
2022-08-26T01:30:01.735Z,99119.09
2022-08-26T01:35:05.829Z,99117.47
2022-08-26T01:40:15.212Z,99112.03
2022-08-26T01:45:21.831Z,99118.53
2022-08-26T01:50:30.248Z,99127.16
2022-08-26T01:55:35.768Z,99137.78
2022-08-26T02:00:39.289Z,99139.94
2022-08-26T02:05:42.035Z,99127.91
2022-08-26T02:10:47.596Z,99138.75
2022-08-26T02:15:50.347Z,99145.56
2022-08-26T02:20:54.362Z,99147.81
2022-08-26T02:26:03.911Z,99147.91
2022-08-26T02:31:08.038Z,99150.97
2022-08-26T02:36:13.507Z,99159.19
2022-08-26T02:41:19.592Z,99156.47
2022-08-26T02:46:29.785Z,99158.63
2022-08-26T02:51:32.929Z,99150.53
2022-08-26T02:56:37.559Z,99154.34
2022-08-26T03:01:41.089Z,99153.75
2022-08-26T03:06:43.911Z,99147.06
2022-08-26T03:11:57.787Z,99140.41
2022-08-26T03:17:00.595Z,99146.53
2022-08-26T03:22:03.892Z,99151.13
2022-08-26T03:27:08.046Z,99143.97
2022-08-26T03:32:10.746Z,99158.31
2022-08-26T03:37:13.450Z,99152.03
2022-08-26T03:42:17.554Z,99145.97
2022-08-26T03:47:24.765Z,99151.19
2022-08-26T03:52:27.743Z,99144.19
2022-08-26T03:57:32.349Z,99155.63
2022-08-26T04:02:35.595Z,99157.75
2022-08-26T04:07:39.130Z,99156.16
2022-08-26T04:12:43.314Z,99159.94
2022-08-26T04:17:47.184Z,99161.06
2022-08-26T04:22:49.890Z,99160.28
2022-08-26T04:27:54.883Z,99167.81
2022-08-26T04:32:57.580Z,99165.72
2022-08-26T04:38:00.499Z,99164.44
2022-08-26T04:43:05.279Z,99176.63
2022-08-26T04:48:08.718Z,99183.00
2022-08-26T04:53:13.894Z,99189.69
2022-08-26T04:58:19.332Z,99183.50
2022-08-26T05:03:22.416Z,99185.44
2022-08-26T05:08:25.269Z,99188.19
2022-08-26T05:13:29.534Z,99179.47
2022-08-26T05:18:32.948Z,99180.09
2022-08-26T05:23:36.721Z,99175.19
2022-08-26T05:28:41.154Z,99177.38
2022-08-26T05:33:46.618Z,99182.28
2022-08-26T05:38:49.722Z,99182.28
2022-08-26T05:43:53.779Z,99190.19
2022-08-26T05:48:56.887Z,99204.31
2022-08-26T05:54:00.170Z,99204.09
2022-08-26T05:59:05.043Z,99204.63
2022-08-26T06:04:08.072Z,99211.16
2022-08-26T06:09:11.470Z,99208.16
2022-08-26T06:14:15.589Z,99211.44
2022-08-26T06:19:19.185Z,99209.53
2022-08-26T06:24:39.974Z,99209.53
2022-08-26T06:29:44.168Z,99210.31
2022-08-26T06:34:47.199Z,99219.84
2022-08-26T06:39:51.279Z,99216.34
2022-08-26T06:44:55.519Z,99217.16
2022-08-26T06:49:58.397Z,99213.34
2022-08-26T06:55:01.165Z,99220.41
2022-08-26T07:00:07.656Z,99223.41
2022-08-26T07:05:11.278Z,99217.72
2022-08-26T07:10:14.837Z,99219.34
2022-08-26T07:15:19.671Z,99219.34
2022-08-26T07:20:30.093Z,99230.53
2022-08-26T07:25:32.791Z,99222.88
2022-08-26T07:30:40.840Z,99233.50
2022-08-26T07:35:44.458Z,99240.31
2022-08-26T07:40:47.367Z,99241.38
2022-08-26T07:45:51.678Z,99248.75
2022-08-26T07:50:54.650Z,99253.63
2022-08-26T07:55:58.926Z,99261.84
2022-08-26T08:01:03.070Z,99259.84
2022-08-26T08:06:08.280Z,99267.97
2022-08-26T08:11:12.552Z,99262.34
2022-08-26T08:16:16.732Z,99265.34
2022-08-26T08:21:22.084Z,99264.81
2022-08-26T08:26:27.342Z,99271.59
2022-08-26T08:31:55.803Z,99266.75
2022-08-26T08:36:55.722Z,99274.91
2022-08-26T08:42:10.940Z,99284.97
2022-08-26T08:47:19.642Z,99272.75
2022-08-26T08:52:30.999Z,99279.53
2022-08-26T08:57:42.326Z,99284.16
2022-08-26T09:02:53.863Z,99291.66
2022-08-26T09:07:59.998Z,99284.16
2022-08-26T09:13:05.300Z,99285.53
2022-08-26T09:18:13.295Z,99281.44
2022-08-26T09:23:16.169Z,99285.81
2022-08-26T09:28:23.534Z,99289.63
2022-08-26T09:33:30.861Z,99278.28
2022-08-26T09:38:35.000Z,99287.16
2022-08-26T09:43:37.712Z,99283.63
2022-08-26T09:48:43.620Z,99280.28
2022-08-26T09:53:52.707Z,99286.38
2022-08-26T09:58:57.552Z,99280.66
2022-08-26T10:04:07.906Z,99281.19
2022-08-26T10:09:14.087Z,99279.25
2022-08-26T10:14:20.548Z,99280.59
2022-08-26T10:19:29.270Z,99271.91
2022-08-26T10:24:54.939Z,99275.69
2022-08-26T10:30:03.331Z,99272.16
2022-08-26T10:35:10.671Z,99273.78
2022-08-26T10:40:16.939Z,99267.28
2022-08-26T10:45:22.035Z,99265.09
2022-08-26T10:50:32.090Z,99269.47
2022-08-26T10:55:38.170Z,99272.47
2022-08-26T11:01:01.195Z,99275.44
2022-08-26T11:06:22.871Z,99279.81
2022-08-26T11:11:52.623Z,99279.81
2022-08-26T11:16:56.881Z,99278.72
2022-08-26T11:22:06.511Z,99272.69
2022-08-26T11:27:12.204Z,99268.06
2022-08-26T11:32:26.096Z,99269.66
2022-08-26T11:37:34.244Z,99272.97
2022-08-26T11:42:39.449Z,99270.53
2022-08-26T11:47:42.311Z,99259.09
2022-08-26T11:53:01.681Z,99259.63
2022-08-26T11:58:05.843Z,99262.38
2022-08-26T12:03:09.885Z,99266.97
2022-08-26T12:08:16.511Z,99265.34
2022-08-26T12:13:23.024Z,99266.44
2022-08-26T12:18:29.243Z,99274.03
2022-08-26T12:23:42.190Z,99268.03
2022-08-26T12:28:48.284Z,99263.38
2022-08-26T12:33:51.282Z,99271.03
2022-08-26T12:38:58.324Z,99259.59
2022-08-26T12:44:01.362Z,99272.38
2022-08-26T12:49:04.311Z,99259.91
2022-08-26T12:54:15.817Z,99262.53
2022-08-26T12:59:24.926Z,99258.53
2022-08-26T13:04:38.838Z,99263.34
2022-08-26T13:09:43.066Z,99256.34
2022-08-26T13:14:46.128Z,99243.47
2022-08-26T13:19:48.915Z,99243.53
2022-08-26T13:24:55.216Z,99243.25
2022-08-26T13:29:59.046Z,99249.25
2022-08-26T13:35:05.515Z,99243.78
2022-08-26T13:40:12.082Z,99242.72
2022-08-26T13:45:14.841Z,99245.09
2022-08-26T13:50:17.621Z,99243.44
2022-08-26T13:55:21.856Z,99237.22
2022-08-26T14:00:24.639Z,99240.81
2022-08-26T14:05:27.762Z,99247.06
2022-08-26T14:10:31.893Z,99243.78
2022-08-26T14:15:35.789Z,99240.28
2022-08-26T14:20:39.482Z,99231.53
2022-08-26T14:25:43.685Z,99236.41
2022-08-26T14:30:49.235Z,99226.91
2022-08-26T14:35:51.945Z,99226.63
2022-08-26T14:40:56.120Z,99229.03
2022-08-26T14:45:58.805Z,99227.19
2022-08-26T14:51:01.510Z,99212.75
2022-08-26T14:56:05.990Z,99229.59
2022-08-26T15:01:08.673Z,99234.53
2022-08-26T15:06:11.461Z,99216.84
2022-08-26T15:11:18.298Z,99220.91
2022-08-26T15:16:21.599Z,99219.56
2022-08-26T15:21:24.813Z,99214.94
2022-08-26T15:26:29.985Z,99212.47
2022-08-26T15:31:33.610Z,99211.13
2022-08-26T15:36:37.709Z,99222.00
2022-08-26T15:41:42.045Z,99205.66
2022-08-26T15:46:44.789Z,99209.50
2022-08-26T15:51:50.223Z,99212.78
2022-08-26T15:56:54.335Z,99208.94
2022-08-26T16:01:57.079Z,99206.44
2022-08-26T16:06:59.814Z,99200.22
2022-08-26T16:12:04.372Z,99201.34
2022-08-26T16:17:07.143Z,99203.22
2022-08-26T16:22:09.794Z,99209.22
2022-08-26T16:27:14.008Z,99208.94
2022-08-26T16:32:16.800Z,99223.31
2022-08-26T16:37:19.781Z,99217.91
2022-08-26T16:42:23.921Z,99223.59
2022-08-26T16:47:27.025Z,99230.16
2022-08-26T16:52:30.173Z,99236.41
2022-08-26T16:57:37.402Z,99243.50
2022-08-26T17:02:40.467Z,99242.97
2022-08-26T17:07:43.152Z,99245.97
2022-08-26T17:12:47.225Z,99258.97
2022-08-26T17:17:49.908Z,99261.78
2022-08-26T17:22:54.877Z,99253.84
2022-08-26T17:27:59.318Z,99263.84
2022-08-26T17:33:02.089Z,99257.91
2022-08-26T17:38:13.774Z,99248.16
2022-08-26T17:43:18.302Z,99249.22
2022-08-26T17:48:20.961Z,99250.88
2022-08-26T17:53:24.036Z,99261.72
2022-08-26T17:58:28.136Z,99268.75
2022-08-26T18:03:31.968Z,99263.72
2022-08-26T18:08:34.756Z,99267.06
2022-08-26T18:13:47.077Z,99261.00
2022-08-26T18:18:53.414Z,99260.75
2022-08-26T18:23:56.391Z,99271.16
2022-08-26T18:29:00.531Z,99270.53
2022-08-26T18:34:03.805Z,99269.69
2022-08-26T18:39:07.650Z,99283.91
2022-08-26T18:44:13.880Z,99281.13
2022-08-26T18:49:18.331Z,99282.00
2022-08-26T18:59:30.704Z,99288.34
2022-08-26T19:04:33.522Z,99287.19
2022-08-26T19:09:36.471Z,99283.28
2022-08-26T19:14:40.516Z,99289.41
2022-08-26T19:19:43.310Z,99286.97
2022-08-26T19:24:48.205Z,99294.22
2022-08-26T19:29:52.292Z,99288.13
2022-08-26T19:34:55.251Z,99290.13
2022-08-26T19:39:57.935Z,99290.25
2022-08-26T19:45:25.075Z,99291.66
2022-08-26T19:50:29.649Z,99296.91
2022-08-26T19:55:33.038Z,99294.72
2022-08-26T20:00:39.665Z,99294.47
2022-08-26T20:05:42.429Z,99286.63
2022-08-26T20:10:46.700Z,99288.88
2022-08-26T20:15:50.821Z,99288.78
2022-08-26T20:21:10.950Z,99299.88
2022-08-26T20:26:13.812Z,99311.09
2022-08-26T20:31:19.138Z,99313.00
2022-08-26T20:36:23.798Z,99325.69
2022-08-26T20:41:27.490Z,99312.97
2022-08-26T20:46:31.788Z,99305.41
2022-08-26T20:51:35.069Z,99307.94
2022-08-26T20:56:38.116Z,99303.31
2022-08-26T21:01:42.699Z,99307.75
2022-08-26T21:06:52.368Z,99316.91
2022-08-26T21:11:55.888Z,99312.69
2022-08-26T21:16:59.980Z,99318.56
2022-08-26T21:22:02.725Z,99318.25
2022-08-26T21:27:05.694Z,99330.31
2022-08-26T21:32:09.833Z,99332.66
2022-08-26T21:37:16.994Z,99339.38
2022-08-26T21:42:19.827Z,99337.53
2022-08-26T21:47:24.345Z,99326.44
2022-08-26T21:52:27.458Z,99346.28
2022-08-26T21:57:31.413Z,99344.75
2022-08-26T22:02:36.775Z,99333.25
2022-08-26T22:07:39.619Z,99347.28
2022-08-26T22:12:42.351Z,99339.72
2022-08-26T22:17:46.472Z,99339.06
2022-08-26T22:22:49.208Z,99346.53
2022-08-26T22:27:52.409Z,99347.09
2022-08-26T22:32:56.786Z,99341.94
2022-08-26T22:38:00.243Z,99348.81
2022-08-26T22:43:03.195Z,99348.94
2022-08-26T22:48:07.290Z,99354.50
2022-08-26T22:53:10.049Z,99350.56
2022-08-26T22:58:13.474Z,99355.41
2022-08-26T23:03:18.634Z,99343.75
2022-08-26T23:08:21.430Z,99352.13
2022-08-26T23:13:24.148Z,99356.81
2022-08-26T23:18:28.269Z,99345.31
2022-08-26T23:23:31.164Z,99341.19
2022-08-26T23:28:34.025Z,99338.28
2022-08-26T23:33:55.649Z,99343.88
2022-08-26T23:39:01.227Z,99336.66
2022-08-26T23:44:05.234Z,99336.66
2022-08-26T23:49:09.263Z,99331.88
2022-08-26T23:54:12.562Z,99323.94
2022-08-26T23:59:15.532Z,99325.31
